sensor_id;sensor_type;location;lat;lon;timestamp;P1;durP1;ratioP1;P2;durP2;ratioP2
2039;SDS011;1025;42.686;23.350;2022-10-03T00:00:01;1.43;;;1.20;;
2039;SDS011;1025;42.686;23.350;2022-10-03T00:02:32;1.80;;;1.70;;
2039;SDS011;1025;42.686;23.350;2022-10-03T00:05:06;2.07;;;1.90;;
2039;SDS011;1025;42.686;23.350;2022-10-03T00:07:39;1.90;;;1.30;;
2039;SDS011;1025;42.686;23.350;2022-10-03T00:10:12;1.67;;;1.57;;
2039;SDS011;1025;42.686;23.350;2022-10-03T00:12:46;1.77;;;1.67;;
2039;SDS011;1025;42.686;23.350;2022-10-03T00:15:15;1.27;;;1.27;;
2039;SDS011;1025;42.686;23.350;2022-10-03T00:17:48;1.70;;;1.60;;
2039;SDS011;1025;42.686;23.350;2022-10-03T00:20:27;2.07;;;1.97;;
2039;SDS011;1025;42.686;23.350;2022-10-03T00:22:56;1.57;;;1.40;;
2039;SDS011;1025;42.686;23.350;2022-10-03T00:25:28;1.50;;;1.40;;
2039;SDS011;1025;42.686;23.350;2022-10-03T00:28:03;1.67;;;1.30;;
2039;SDS011;1025;42.686;23.350;2022-10-03T00:30:40;1.53;;;1.40;;
2039;SDS011;1025;42.686;23.350;2022-10-03T00:33:13;1.30;;;1.27;;
2039;SDS011;1025;42.686;23.350;2022-10-03T00:35:46;3.37;;;2.17;;
2039;SDS011;1025;42.686;23.350;2022-10-03T00:38:21;1.80;;;1.70;;
2039;SDS011;1025;42.686;23.350;2022-10-03T00:41:03;1.60;;;1.60;;
2039;SDS011;1025;42.686;23.350;2022-10-03T00:43:41;1.90;;;1.80;;
2039;SDS011;1025;42.686;23.350;2022-10-03T00:49:28;1.50;;;1.40;;
2039;SDS011;1025;42.686;23.350;2022-10-03T00:54:51;1.90;;;1.80;;
2039;SDS011;1025;42.686;23.350;2022-10-03T00:57:23;2.27;;;2.07;;
2039;SDS011;1025;42.686;23.350;2022-10-03T01:00:02;1.90;;;1.80;;
2039;SDS011;1025;42.686;23.350;2022-10-03T01:02:34;1.33;;;1.23;;
2039;SDS011;1025;42.686;23.350;2022-10-03T01:05:08;1.50;;;1.40;;
2039;SDS011;1025;42.686;23.350;2022-10-03T01:10:25;2.90;;;2.30;;
2039;SDS011;1025;42.686;23.350;2022-10-03T01:13:01;2.27;;;2.07;;
2039;SDS011;1025;42.686;23.350;2022-10-03T01:15:32;4.23;;;1.83;;
2039;SDS011;1025;42.686;23.350;2022-10-03T01:20:46;2.37;;;2.27;;
2039;SDS011;1025;42.686;23.350;2022-10-03T01:26:13;1.20;;;1.20;;
2039;SDS011;1025;42.686;23.350;2022-10-03T01:28:50;2.37;;;2.17;;
2039;SDS011;1025;42.686;23.350;2022-10-03T01:31:39;2.83;;;1.87;;
2039;SDS011;1025;42.686;23.350;2022-10-03T01:34:10;2.53;;;2.43;;
2039;SDS011;1025;42.686;23.350;2022-10-03T01:36:38;1.93;;;1.90;;
2039;SDS011;1025;42.686;23.350;2022-10-03T01:39:09;3.40;;;2.40;;
2039;SDS011;1025;42.686;23.350;2022-10-03T01:41:41;2.70;;;2.50;;
2039;SDS011;1025;42.686;23.350;2022-10-03T01:44:15;1.47;;;1.37;;
2039;SDS011;1025;42.686;23.350;2022-10-03T01:46:48;1.23;;;1.17;;
2039;SDS011;1025;42.686;23.350;2022-10-03T01:49:18;2.60;;;1.50;;
2039;SDS011;1025;42.686;23.350;2022-10-03T01:51:49;1.93;;;1.80;;
2039;SDS011;1025;42.686;23.350;2022-10-03T01:54:19;1.10;;;1.10;;
2039;SDS011;1025;42.686;23.350;2022-10-03T01:56:51;1.27;;;1.27;;
2039;SDS011;1025;42.686;23.350;2022-10-03T01:59:21;1.67;;;1.57;;
2039;SDS011;1025;42.686;23.350;2022-10-03T02:01:49;1.07;;;1.07;;
2039;SDS011;1025;42.686;23.350;2022-10-03T02:04:19;1.73;;;1.63;;
2039;SDS011;1025;42.686;23.350;2022-10-03T02:06:50;1.43;;;1.43;;
2039;SDS011;1025;42.686;23.350;2022-10-03T02:09:23;2.03;;;1.87;;
2039;SDS011;1025;42.686;23.350;2022-10-03T02:11:56;1.37;;;1.37;;
2039;SDS011;1025;42.686;23.350;2022-10-03T02:14:26;1.50;;;1.40;;
2039;SDS011;1025;42.686;23.350;2022-10-03T02:16:58;3.13;;;1.83;;
2039;SDS011;1025;42.686;23.350;2022-10-03T02:19:27;1.30;;;1.30;;
2039;SDS011;1025;42.686;23.350;2022-10-03T02:21:55;6.93;;;1.80;;
2039;SDS011;1025;42.686;23.350;2022-10-03T02:24:32;1.87;;;1.60;;
2039;SDS011;1025;42.686;23.350;2022-10-03T02:27:12;2.40;;;1.77;;
2039;SDS011;1025;42.686;23.350;2022-10-03T02:33:00;1.57;;;1.47;;
2039;SDS011;1025;42.686;23.350;2022-10-03T02:38:24;2.53;;;2.43;;
2039;SDS011;1025;42.686;23.350;2022-10-03T02:40:58;2.20;;;2.10;;
2039;SDS011;1025;42.686;23.350;2022-10-03T02:43:41;2.10;;;2.00;;
2039;SDS011;1025;42.686;23.350;2022-10-03T02:49:04;2.60;;;2.50;;
2039;SDS011;1025;42.686;23.350;2022-10-03T02:51:42;2.87;;;2.23;;
2039;SDS011;1025;42.686;23.350;2022-10-03T02:57:24;2.70;;;2.50;;
2039;SDS011;1025;42.686;23.350;2022-10-03T03:02:57;3.40;;;2.57;;
2039;SDS011;1025;42.686;23.350;2022-10-03T03:05:35;2.87;;;2.50;;
2039;SDS011;1025;42.686;23.350;2022-10-03T03:11:03;2.80;;;2.60;;
2039;SDS011;1025;42.686;23.350;2022-10-03T03:13:49;2.30;;;2.07;;
2039;SDS011;1025;42.686;23.350;2022-10-03T03:19:14;2.30;;;2.10;;
2039;SDS011;1025;42.686;23.350;2022-10-03T03:21:47;3.20;;;3.00;;
2039;SDS011;1025;42.686;23.350;2022-10-03T03:24:20;4.10;;;3.70;;
2039;SDS011;1025;42.686;23.350;2022-10-03T03:26:50;2.70;;;2.60;;
2039;SDS011;1025;42.686;23.350;2022-10-03T03:29:23;2.60;;;2.50;;
2039;SDS011;1025;42.686;23.350;2022-10-03T03:31:54;3.30;;;3.00;;
2039;SDS011;1025;42.686;23.350;2022-10-03T03:34:28;3.00;;;2.80;;
2039;SDS011;1025;42.686;23.350;2022-10-03T03:36:59;2.80;;;2.60;;
2039;SDS011;1025;42.686;23.350;2022-10-03T03:39:32;3.00;;;2.80;;
2039;SDS011;1025;42.686;23.350;2022-10-03T03:42:02;3.60;;;3.40;;
2039;SDS011;1025;42.686;23.350;2022-10-03T03:44:36;3.80;;;3.50;;
2039;SDS011;1025;42.686;23.350;2022-10-03T03:47:14;3.30;;;3.20;;
2039;SDS011;1025;42.686;23.350;2022-10-03T03:49:47;4.03;;;3.77;;
2039;SDS011;1025;42.686;23.350;2022-10-03T03:52:21;5.50;;;4.87;;
2039;SDS011;1025;42.686;23.350;2022-10-03T03:55:02;4.20;;;3.90;;
2039;SDS011;1025;42.686;23.350;2022-10-03T04:00:16;3.10;;;3.00;;
2039;SDS011;1025;42.686;23.350;2022-10-03T04:02:51;3.50;;;3.07;;
2039;SDS011;1025;42.686;23.350;2022-10-03T04:05:25;4.40;;;4.20;;
2039;SDS011;1025;42.686;23.350;2022-10-03T04:08:00;3.53;;;3.33;;
2039;SDS011;1025;42.686;23.350;2022-10-03T04:10:39;3.73;;;3.63;;
2039;SDS011;1025;42.686;23.350;2022-10-03T04:13:12;2.40;;;2.30;;
2039;SDS011;1025;42.686;23.350;2022-10-03T04:15:52;2.90;;;2.67;;
2039;SDS011;1025;42.686;23.350;2022-10-03T04:18:26;4.40;;;4.10;;
2039;SDS011;1025;42.686;23.350;2022-10-03T04:21:20;3.90;;;3.70;;
2039;SDS011;1025;42.686;23.350;2022-10-03T04:26:38;7.90;;;4.30;;
2039;SDS011;1025;42.686;23.350;2022-10-03T04:29:20;4.50;;;4.20;;
2039;SDS011;1025;42.686;23.350;2022-10-03T04:31:53;3.37;;;3.27;;
2039;SDS011;1025;42.686;23.350;2022-10-03T04:34:27;3.40;;;2.90;;
2039;SDS011;1025;42.686;23.350;2022-10-03T04:36:57;4.40;;;4.17;;
2039;SDS011;1025;42.686;23.350;2022-10-03T04:39:31;3.60;;;3.40;;
2039;SDS011;1025;42.686;23.350;2022-10-03T04:42:08;3.50;;;3.30;;
2039;SDS011;1025;42.686;23.350;2022-10-03T04:44:39;2.90;;;2.80;;
2039;SDS011;1025;42.686;23.350;2022-10-03T04:47:13;4.47;;;4.10;;
2039;SDS011;1025;42.686;23.350;2022-10-03T04:49:43;3.23;;;3.03;;
2039;SDS011;1025;42.686;23.350;2022-10-03T04:52:14;16.80;;;3.63;;
2039;SDS011;1025;42.686;23.350;2022-10-03T04:54:45;4.93;;;4.53;;
2039;SDS011;1025;42.686;23.350;2022-10-03T04:57:17;2.73;;;2.63;;
2039;SDS011;1025;42.686;23.350;2022-10-03T04:59:47;3.40;;;3.20;;
2039;SDS011;1025;42.686;23.350;2022-10-03T05:02:25;3.57;;;3.47;;
2039;SDS011;1025;42.686;23.350;2022-10-03T05:05:02;4.03;;;3.73;;
2039;SDS011;1025;42.686;23.350;2022-10-03T05:07:36;2.57;;;2.47;;
2039;SDS011;1025;42.686;23.350;2022-10-03T05:10:16;7.27;;;3.90;;
2039;SDS011;1025;42.686;23.350;2022-10-03T05:12:49;2.83;;;2.67;;
2039;SDS011;1025;42.686;23.350;2022-10-03T05:15:18;3.80;;;3.60;;
2039;SDS011;1025;42.686;23.350;2022-10-03T05:17:47;3.97;;;3.67;;
2039;SDS011;1025;42.686;23.350;2022-10-03T05:20:27;3.80;;;3.60;;
2039;SDS011;1025;42.686;23.350;2022-10-03T05:23:01;4.33;;;4.10;;
2039;SDS011;1025;42.686;23.350;2022-10-03T05:25:31;4.20;;;3.90;;
2039;SDS011;1025;42.686;23.350;2022-10-03T05:28:05;4.47;;;3.70;;
2039;SDS011;1025;42.686;23.350;2022-10-03T05:30:38;3.13;;;3.03;;
2039;SDS011;1025;42.686;23.350;2022-10-03T05:33:06;8.40;;;3.43;;
2039;SDS011;1025;42.686;23.350;2022-10-03T05:35:44;4.83;;;4.53;;
2039;SDS011;1025;42.686;23.350;2022-10-03T05:38:16;3.37;;;2.53;;
2039;SDS011;1025;42.686;23.350;2022-10-03T05:40:49;2.90;;;2.70;;
2039;SDS011;1025;42.686;23.350;2022-10-03T05:43:23;3.27;;;3.07;;
2039;SDS011;1025;42.686;23.350;2022-10-03T05:45:53;3.17;;;3.07;;
2039;SDS011;1025;42.686;23.350;2022-10-03T05:48:36;3.90;;;3.50;;
2039;SDS011;1025;42.686;23.350;2022-10-03T05:51:16;3.53;;;3.00;;
2039;SDS011;1025;42.686;23.350;2022-10-03T05:53:54;3.53;;;3.23;;
2039;SDS011;1025;42.686;23.350;2022-10-03T05:56:32;4.30;;;3.90;;
2039;SDS011;1025;42.686;23.350;2022-10-03T05:59:23;4.63;;;3.20;;
2039;SDS011;1025;42.686;23.350;2022-10-03T06:04:46;2.80;;;2.67;;
2039;SDS011;1025;42.686;23.350;2022-10-03T06:07:19;3.20;;;3.00;;
2039;SDS011;1025;42.686;23.350;2022-10-03T06:12:40;3.73;;;3.50;;
2039;SDS011;1025;42.686;23.350;2022-10-03T06:17:55;7.30;;;4.87;;
2039;SDS011;1025;42.686;23.350;2022-10-03T06:23:11;4.50;;;4.10;;
2039;SDS011;1025;42.686;23.350;2022-10-03T06:26:02;4.30;;;4.00;;
2039;SDS011;1025;42.686;23.350;2022-10-03T06:28:45;4.80;;;4.40;;
2039;SDS011;1025;42.686;23.350;2022-10-03T06:34:19;6.90;;;4.10;;
2039;SDS011;1025;42.686;23.350;2022-10-03T06:47:44;4.53;;;4.00;;
2039;SDS011;1025;42.686;23.350;2022-10-03T06:50:27;7.70;;;6.50;;
2039;SDS011;1025;42.686;23.350;2022-10-03T06:55:52;8.27;;;6.33;;
2039;SDS011;1025;42.686;23.350;2022-10-03T06:58:35;7.90;;;6.20;;
2039;SDS011;1025;42.686;23.350;2022-10-03T07:01:17;5.07;;;4.60;;
2039;SDS011;1025;42.686;23.350;2022-10-03T07:03:59;4.60;;;4.23;;
2039;SDS011;1025;42.686;23.350;2022-10-03T07:06:44;3.33;;;3.23;;
2039;SDS011;1025;42.686;23.350;2022-10-03T07:15:12;3.10;;;2.90;;
2039;SDS011;1025;42.686;23.350;2022-10-03T07:17:47;2.20;;;2.10;;
2039;SDS011;1025;42.686;23.350;2022-10-03T07:20:31;2.63;;;2.43;;
2039;SDS011;1025;42.686;23.350;2022-10-03T07:23:20;3.30;;;3.07;;
2039;SDS011;1025;42.686;23.350;2022-10-03T07:28:39;7.87;;;7.43;;
2039;SDS011;1025;42.686;23.350;2022-10-03T07:31:13;7.47;;;6.70;;
2039;SDS011;1025;42.686;23.350;2022-10-03T07:36:55;4.93;;;4.50;;
2039;SDS011;1025;42.686;23.350;2022-10-03T07:40:02;3.83;;;3.63;;
2039;SDS011;1025;42.686;23.350;2022-10-03T07:42:49;3.33;;;3.23;;
2039;SDS011;1025;42.686;23.350;2022-10-03T07:45:21;4.07;;;3.87;;
2039;SDS011;1025;42.686;23.350;2022-10-03T07:53:47;4.13;;;4.00;;
2039;SDS011;1025;42.686;23.350;2022-10-03T07:56:23;3.90;;;3.70;;
2039;SDS011;1025;42.686;23.350;2022-10-03T07:59:19;3.10;;;3.00;;
2039;SDS011;1025;42.686;23.350;2022-10-03T08:01:54;9.73;;;3.57;;
2039;SDS011;1025;42.686;23.350;2022-10-03T08:04:33;4.67;;;4.23;;
2039;SDS011;1025;42.686;23.350;2022-10-03T08:07:11;3.10;;;3.00;;
2039;SDS011;1025;42.686;23.350;2022-10-03T08:15:21;4.57;;;4.00;;
2039;SDS011;1025;42.686;23.350;2022-10-03T08:20:44;4.60;;;4.30;;
2039;SDS011;1025;42.686;23.350;2022-10-03T08:23:21;7.13;;;4.73;;
2039;SDS011;1025;42.686;23.350;2022-10-03T08:25:56;4.80;;;4.10;;
2039;SDS011;1025;42.686;23.350;2022-10-03T08:34:05;5.13;;;4.67;;
2039;SDS011;1025;42.686;23.350;2022-10-03T08:39:23;4.20;;;3.30;;
2039;SDS011;1025;42.686;23.350;2022-10-03T08:42:14;2.50;;;2.37;;
2039;SDS011;1025;42.686;23.350;2022-10-03T08:45:01;2.03;;;1.93;;
2039;SDS011;1025;42.686;23.350;2022-10-03T08:47:52;2.13;;;2.03;;
2039;SDS011;1025;42.686;23.350;2022-10-03T08:50:30;1.37;;;1.37;;
2039;SDS011;1025;42.686;23.350;2022-10-03T08:53:07;1.63;;;1.53;;
2039;SDS011;1025;42.686;23.350;2022-10-03T08:55:40;1.13;;;1.13;;
2039;SDS011;1025;42.686;23.350;2022-10-03T09:01:09;1.63;;;1.53;;
2039;SDS011;1025;42.686;23.350;2022-10-03T09:06:32;3.67;;;1.60;;
2039;SDS011;1025;42.686;23.350;2022-10-03T09:09:15;1.80;;;1.70;;
2039;SDS011;1025;42.686;23.350;2022-10-03T09:14:40;1.50;;;1.50;;
2039;SDS011;1025;42.686;23.350;2022-10-03T09:25:20;10.10;;;3.07;;
2039;SDS011;1025;42.686;23.350;2022-10-03T09:30:45;7.73;;;2.17;;
2039;SDS011;1025;42.686;23.350;2022-10-03T09:36:11;5.90;;;3.20;;
2039;SDS011;1025;42.686;23.350;2022-10-03T09:38:49;1.77;;;1.63;;
2039;SDS011;1025;42.686;23.350;2022-10-03T09:50:02;4.00;;;1.70;;
2039;SDS011;1025;42.686;23.350;2022-10-03T09:52:43;3.23;;;2.40;;
2039;SDS011;1025;42.686;23.350;2022-10-03T09:58:03;3.20;;;2.13;;
2039;SDS011;1025;42.686;23.350;2022-10-03T10:00:44;3.80;;;2.83;;
2039;SDS011;1025;42.686;23.350;2022-10-03T10:06:06;5.33;;;1.53;;
2039;SDS011;1025;42.686;23.350;2022-10-03T10:08:39;2.60;;;1.63;;
2039;SDS011;1025;42.686;23.350;2022-10-03T10:11:18;1.70;;;1.60;;
2039;SDS011;1025;42.686;23.350;2022-10-03T10:13:56;1.43;;;1.37;;
2039;SDS011;1025;42.686;23.350;2022-10-03T10:16:32;4.40;;;1.50;;
2039;SDS011;1025;42.686;23.350;2022-10-03T10:25:06;1.40;;;1.30;;
2039;SDS011;1025;42.686;23.350;2022-10-03T10:36:33;1.37;;;1.37;;
2039;SDS011;1025;42.686;23.350;2022-10-03T10:39:11;1.93;;;1.83;;
2039;SDS011;1025;42.686;23.350;2022-10-03T10:44:48;0.93;;;0.90;;
2039;SDS011;1025;42.686;23.350;2022-10-03T10:50:26;2.50;;;1.77;;
2039;SDS011;1025;42.686;23.350;2022-10-03T10:56:10;1.40;;;1.30;;
2039;SDS011;1025;42.686;23.350;2022-10-03T11:07:18;1.97;;;1.87;;
2039;SDS011;1025;42.686;23.350;2022-10-03T11:09:55;0.80;;;0.80;;
2039;SDS011;1025;42.686;23.350;2022-10-03T11:12:53;2.33;;;2.23;;
2039;SDS011;1025;42.686;23.350;2022-10-03T11:21:36;1.30;;;1.30;;
2039;SDS011;1025;42.686;23.350;2022-10-03T11:24:23;0.97;;;0.97;;
2039;SDS011;1025;42.686;23.350;2022-10-03T11:29:51;1.50;;;1.40;;
2039;SDS011;1025;42.686;23.350;2022-10-03T11:38:06;1.80;;;1.70;;
2039;SDS011;1025;42.686;23.350;2022-10-03T11:40:42;1.77;;;1.67;;
2039;SDS011;1025;42.686;23.350;2022-10-03T11:46:16;3.10;;;2.13;;
2039;SDS011;1025;42.686;23.350;2022-10-03T11:48:46;2.23;;;2.13;;
2039;SDS011;1025;42.686;23.350;2022-10-03T11:51:17;2.90;;;2.73;;
2039;SDS011;1025;42.686;23.350;2022-10-03T11:53:46;2.50;;;2.40;;
2039;SDS011;1025;42.686;23.350;2022-10-03T11:56:26;2.30;;;2.20;;
2039;SDS011;1025;42.686;23.350;2022-10-03T11:58:59;3.80;;;3.40;;
2039;SDS011;1025;42.686;23.350;2022-10-03T12:01:34;2.13;;;2.03;;
2039;SDS011;1025;42.686;23.350;2022-10-03T12:04:06;2.73;;;2.60;;
2039;SDS011;1025;42.686;23.350;2022-10-03T12:06:47;3.40;;;3.10;;
2039;SDS011;1025;42.686;23.350;2022-10-03T12:09:36;2.60;;;2.50;;
2039;SDS011;1025;42.686;23.350;2022-10-03T12:12:09;3.20;;;2.90;;
2039;SDS011;1025;42.686;23.350;2022-10-03T12:14:39;3.03;;;2.93;;
2039;SDS011;1025;42.686;23.350;2022-10-03T12:17:10;8.00;;;3.03;;
2039;SDS011;1025;42.686;23.350;2022-10-03T12:19:42;2.30;;;2.20;;
2039;SDS011;1025;42.686;23.350;2022-10-03T12:22:15;10.20;;;3.30;;
2039;SDS011;1025;42.686;23.350;2022-10-03T12:24:44;2.87;;;2.67;;
2039;SDS011;1025;42.686;23.350;2022-10-03T12:27:14;2.20;;;2.10;;
2039;SDS011;1025;42.686;23.350;2022-10-03T12:29:45;2.23;;;2.07;;
2039;SDS011;1025;42.686;23.350;2022-10-03T12:32:19;3.17;;;2.97;;
2039;SDS011;1025;42.686;23.350;2022-10-03T12:34:54;1.60;;;1.60;;
2039;SDS011;1025;42.686;23.350;2022-10-03T12:37:32;2.47;;;2.37;;
2039;SDS011;1025;42.686;23.350;2022-10-03T12:40:02;1.50;;;1.50;;
2039;SDS011;1025;42.686;23.350;2022-10-03T12:42:33;2.40;;;2.00;;
2039;SDS011;1025;42.686;23.350;2022-10-03T12:45:03;2.10;;;2.00;;
2039;SDS011;1025;42.686;23.350;2022-10-03T12:47:34;2.60;;;2.50;;
2039;SDS011;1025;42.686;23.350;2022-10-03T12:50:12;2.37;;;2.27;;
2039;SDS011;1025;42.686;23.350;2022-10-03T12:52:42;2.90;;;2.70;;
2039;SDS011;1025;42.686;23.350;2022-10-03T12:55:17;2.17;;;2.00;;
2039;SDS011;1025;42.686;23.350;2022-10-03T12:57:51;2.03;;;1.93;;
2039;SDS011;1025;42.686;23.350;2022-10-03T13:00:22;1.80;;;1.70;;
2039;SDS011;1025;42.686;23.350;2022-10-03T13:05:42;6.60;;;2.40;;
2039;SDS011;1025;42.686;23.350;2022-10-03T13:08:17;3.57;;;3.30;;
2039;SDS011;1025;42.686;23.350;2022-10-03T13:10:48;1.53;;;1.53;;
2039;SDS011;1025;42.686;23.350;2022-10-03T13:13:22;2.03;;;1.93;;
2039;SDS011;1025;42.686;23.350;2022-10-03T13:18:50;2.80;;;2.70;;
2039;SDS011;1025;42.686;23.350;2022-10-03T13:21:19;2.00;;;1.90;;
2039;SDS011;1025;42.686;23.350;2022-10-03T13:23:47;2.47;;;2.37;;
2039;SDS011;1025;42.686;23.350;2022-10-03T13:26:15;2.30;;;2.20;;
2039;SDS011;1025;42.686;23.350;2022-10-03T13:28:57;3.23;;;2.17;;
2039;SDS011;1025;42.686;23.350;2022-10-03T13:31:26;2.17;;;2.07;;
2039;SDS011;1025;42.686;23.350;2022-10-03T13:33:54;1.67;;;1.57;;
2039;SDS011;1025;42.686;23.350;2022-10-03T13:36:23;2.30;;;2.20;;
2039;SDS011;1025;42.686;23.350;2022-10-03T13:38:58;1.70;;;1.67;;
2039;SDS011;1025;42.686;23.350;2022-10-03T13:41:41;1.43;;;1.40;;
2039;SDS011;1025;42.686;23.350;2022-10-03T13:44:13;1.50;;;1.50;;
2039;SDS011;1025;42.686;23.350;2022-10-03T13:46:42;10.67;;;2.13;;
2039;SDS011;1025;42.686;23.350;2022-10-03T13:49:18;2.50;;;2.40;;
2039;SDS011;1025;42.686;23.350;2022-10-03T13:51:50;2.40;;;2.20;;
2039;SDS011;1025;42.686;23.350;2022-10-03T13:54:20;2.57;;;2.47;;
2039;SDS011;1025;42.686;23.350;2022-10-03T13:56:50;3.40;;;2.13;;
2039;SDS011;1025;42.686;23.350;2022-10-03T14:02:02;5.33;;;2.50;;
2039;SDS011;1025;42.686;23.350;2022-10-03T14:07:25;2.60;;;2.40;;
2039;SDS011;1025;42.686;23.350;2022-10-03T14:10:06;3.00;;;2.90;;
2039;SDS011;1025;42.686;23.350;2022-10-03T14:12:37;3.53;;;3.33;;
2039;SDS011;1025;42.686;23.350;2022-10-03T14:18:10;1.60;;;1.50;;
2039;SDS011;1025;42.686;23.350;2022-10-03T14:20:39;1.80;;;1.57;;
2039;SDS011;1025;42.686;23.350;2022-10-03T14:23:13;1.87;;;1.77;;
2039;SDS011;1025;42.686;23.350;2022-10-03T14:25:41;1.93;;;1.73;;
2039;SDS011;1025;42.686;23.350;2022-10-03T14:28:12;1.57;;;1.47;;
2039;SDS011;1025;42.686;23.350;2022-10-03T14:30:44;11.43;;;1.37;;
2039;SDS011;1025;42.686;23.350;2022-10-03T14:33:16;2.20;;;1.47;;
2039;SDS011;1025;42.686;23.350;2022-10-03T14:35:49;1.43;;;1.33;;
2039;SDS011;1025;42.686;23.350;2022-10-03T14:38:21;1.93;;;1.83;;
2039;SDS011;1025;42.686;23.350;2022-10-03T14:41:09;1.30;;;1.30;;
2039;SDS011;1025;42.686;23.350;2022-10-03T14:43:39;1.80;;;1.70;;
2039;SDS011;1025;42.686;23.350;2022-10-03T14:46:08;1.97;;;1.87;;
2039;SDS011;1025;42.686;23.350;2022-10-03T14:48:36;1.73;;;1.37;;
2039;SDS011;1025;42.686;23.350;2022-10-03T14:51:07;1.40;;;1.40;;
2039;SDS011;1025;42.686;23.350;2022-10-03T14:53:34;1.60;;;1.50;;
2039;SDS011;1025;42.686;23.350;2022-10-03T14:56:04;2.60;;;2.50;;
2039;SDS011;1025;42.686;23.350;2022-10-03T14:58:33;1.87;;;1.77;;
2039;SDS011;1025;42.686;23.350;2022-10-03T15:01:02;2.80;;;2.70;;
2039;SDS011;1025;42.686;23.350;2022-10-03T15:03:50;2.28;;;2.10;;
2039;SDS011;1025;42.686;23.350;2022-10-03T15:06:31;2.03;;;1.93;;
2039;SDS011;1025;42.686;23.350;2022-10-03T15:08:58;1.83;;;1.73;;
2039;SDS011;1025;42.686;23.350;2022-10-03T15:11:27;2.13;;;2.03;;
2039;SDS011;1025;42.686;23.350;2022-10-03T15:13:56;3.30;;;3.00;;
2039;SDS011;1025;42.686;23.350;2022-10-03T15:16:26;2.27;;;2.17;;
2039;SDS011;1025;42.686;23.350;2022-10-03T15:18:58;2.40;;;1.60;;
2039;SDS011;1025;42.686;23.350;2022-10-03T15:21:26;2.37;;;2.27;;
2039;SDS011;1025;42.686;23.350;2022-10-03T15:23:54;3.50;;;2.43;;
2039;SDS011;1025;42.686;23.350;2022-10-03T15:26:21;2.33;;;2.23;;
2039;SDS011;1025;42.686;23.350;2022-10-03T15:28:49;1.80;;;1.70;;
2039;SDS011;1025;42.686;23.350;2022-10-03T15:31:21;1.50;;;1.50;;
2039;SDS011;1025;42.686;23.350;2022-10-03T15:33:51;2.60;;;2.40;;
2039;SDS011;1025;42.686;23.350;2022-10-03T15:36:20;1.90;;;1.80;;
2039;SDS011;1025;42.686;23.350;2022-10-03T15:38:50;2.60;;;2.47;;
2039;SDS011;1025;42.686;23.350;2022-10-03T15:41:18;2.30;;;2.20;;
2039;SDS011;1025;42.686;23.350;2022-10-03T15:43:49;2.50;;;2.40;;
2039;SDS011;1025;42.686;23.350;2022-10-03T15:46:25;1.90;;;1.80;;
2039;SDS011;1025;42.686;23.350;2022-10-03T15:48:53;2.50;;;2.40;;
2039;SDS011;1025;42.686;23.350;2022-10-03T15:51:21;2.40;;;2.00;;
2039;SDS011;1025;42.686;23.350;2022-10-03T15:53:50;2.00;;;1.90;;
2039;SDS011;1025;42.686;23.350;2022-10-03T15:56:19;2.20;;;2.10;;
2039;SDS011;1025;42.686;23.350;2022-10-03T15:58:50;2.13;;;1.93;;
2039;SDS011;1025;42.686;23.350;2022-10-03T16:01:19;1.37;;;1.37;;
2039;SDS011;1025;42.686;23.350;2022-10-03T16:03:48;2.47;;;2.27;;
2039;SDS011;1025;42.686;23.350;2022-10-03T16:06:16;1.73;;;1.63;;
2039;SDS011;1025;42.686;23.350;2022-10-03T16:08:49;2.30;;;1.97;;
2039;SDS011;1025;42.686;23.350;2022-10-03T16:11:20;2.00;;;1.90;;
2039;SDS011;1025;42.686;23.350;2022-10-03T16:13:50;3.43;;;2.43;;
2039;SDS011;1025;42.686;23.350;2022-10-03T16:16:21;2.13;;;2.00;;
2039;SDS011;1025;42.686;23.350;2022-10-03T16:18:55;2.47;;;2.27;;
2039;SDS011;1025;42.686;23.350;2022-10-03T16:24:07;2.20;;;2.10;;
2039;SDS011;1025;42.686;23.350;2022-10-03T16:26:43;2.43;;;2.23;;
2039;SDS011;1025;42.686;23.350;2022-10-03T16:29:14;2.17;;;2.07;;
2039;SDS011;1025;42.686;23.350;2022-10-03T16:31:45;2.30;;;2.20;;
2039;SDS011;1025;42.686;23.350;2022-10-03T16:34:14;2.30;;;2.20;;
2039;SDS011;1025;42.686;23.350;2022-10-03T16:36:41;3.37;;;1.80;;
2039;SDS011;1025;42.686;23.350;2022-10-03T16:39:16;1.93;;;1.80;;
2039;SDS011;1025;42.686;23.350;2022-10-03T16:41:43;2.83;;;2.63;;
2039;SDS011;1025;42.686;23.350;2022-10-03T16:44:16;1.90;;;1.80;;
2039;SDS011;1025;42.686;23.350;2022-10-03T16:46:44;2.10;;;2.00;;
2039;SDS011;1025;42.686;23.350;2022-10-03T16:49:17;2.70;;;2.60;;
2039;SDS011;1025;42.686;23.350;2022-10-03T16:52:07;2.23;;;2.00;;
2039;SDS011;1025;42.686;23.350;2022-10-03T16:54:36;3.03;;;2.27;;
2039;SDS011;1025;42.686;23.350;2022-10-03T16:57:07;2.27;;;2.17;;
2039;SDS011;1025;42.686;23.350;2022-10-03T16:59:36;1.93;;;1.73;;
2039;SDS011;1025;42.686;23.350;2022-10-03T17:02:04;2.10;;;2.00;;
2039;SDS011;1025;42.686;23.350;2022-10-03T17:04:32;2.13;;;2.03;;
2039;SDS011;1025;42.686;23.350;2022-10-03T17:06:59;1.93;;;1.83;;
2039;SDS011;1025;42.686;23.350;2022-10-03T17:09:32;2.70;;;2.50;;
2039;SDS011;1025;42.686;23.350;2022-10-03T17:12:03;1.60;;;1.50;;
2039;SDS011;1025;42.686;23.350;2022-10-03T17:14:32;2.93;;;2.73;;
2039;SDS011;1025;42.686;23.350;2022-10-03T17:17:02;7.37;;;1.83;;
2039;SDS011;1025;42.686;23.350;2022-10-03T17:19:30;1.80;;;1.70;;
2039;SDS011;1025;42.686;23.350;2022-10-03T17:22:01;1.23;;;1.23;;
2039;SDS011;1025;42.686;23.350;2022-10-03T17:24:34;1.80;;;1.70;;
2039;SDS011;1025;42.686;23.350;2022-10-03T17:27:04;1.90;;;1.80;;
2039;SDS011;1025;42.686;23.350;2022-10-03T17:29:34;3.40;;;2.30;;
2039;SDS011;1025;42.686;23.350;2022-10-03T17:32:08;2.10;;;2.00;;
2039;SDS011;1025;42.686;23.350;2022-10-03T17:34:38;2.23;;;2.13;;
2039;SDS011;1025;42.686;23.350;2022-10-03T17:37:13;46.63;;;2.90;;
2039;SDS011;1025;42.686;23.350;2022-10-03T17:39:47;1.63;;;1.53;;
2039;SDS011;1025;42.686;23.350;2022-10-03T17:42:25;2.87;;;2.63;;
2039;SDS011;1025;42.686;23.350;2022-10-03T17:44:56;1.93;;;1.83;;
2039;SDS011;1025;42.686;23.350;2022-10-03T17:47:27;5.13;;;2.53;;
2039;SDS011;1025;42.686;23.350;2022-10-03T17:49:59;5.57;;;2.70;;
2039;SDS011;1025;42.686;23.350;2022-10-03T17:52:26;2.40;;;2.30;;
2039;SDS011;1025;42.686;23.350;2022-10-03T17:54:54;2.60;;;2.40;;
2039;SDS011;1025;42.686;23.350;2022-10-03T17:57:22;2.87;;;2.67;;
2039;SDS011;1025;42.686;23.350;2022-10-03T17:59:51;5.57;;;5.07;;
2039;SDS011;1025;42.686;23.350;2022-10-03T18:02:19;2.60;;;2.50;;
2039;SDS011;1025;42.686;23.350;2022-10-03T18:04:51;2.03;;;1.93;;
2039;SDS011;1025;42.686;23.350;2022-10-03T18:07:22;2.47;;;2.27;;
2039;SDS011;1025;42.686;23.350;2022-10-03T18:09:49;1.90;;;1.80;;
2039;SDS011;1025;42.686;23.350;2022-10-03T18:12:19;2.60;;;2.50;;
2039;SDS011;1025;42.686;23.350;2022-10-03T18:17:31;2.50;;;2.30;;
2039;SDS011;1025;42.686;23.350;2022-10-03T18:20:03;2.37;;;2.20;;
2039;SDS011;1025;42.686;23.350;2022-10-03T18:22:31;2.33;;;2.10;;
2039;SDS011;1025;42.686;23.350;2022-10-03T18:25:02;2.23;;;2.03;;
2039;SDS011;1025;42.686;23.350;2022-10-03T18:27:56;1.70;;;1.70;;
2039;SDS011;1025;42.686;23.350;2022-10-03T18:30:27;1.33;;;1.33;;
2039;SDS011;1025;42.686;23.350;2022-10-03T18:32:58;2.27;;;2.17;;
2039;SDS011;1025;42.686;23.350;2022-10-03T18:35:25;2.70;;;2.17;;
2039;SDS011;1025;42.686;23.350;2022-10-03T18:37:54;3.07;;;1.57;;
2039;SDS011;1025;42.686;23.350;2022-10-03T18:40:24;2.33;;;1.93;;
2039;SDS011;1025;42.686;23.350;2022-10-03T18:42:52;1.50;;;1.47;;
2039;SDS011;1025;42.686;23.350;2022-10-03T18:45:19;2.10;;;2.00;;
2039;SDS011;1025;42.686;23.350;2022-10-03T18:47:49;1.87;;;1.77;;
2039;SDS011;1025;42.686;23.350;2022-10-03T18:50:19;1.93;;;1.83;;
2039;SDS011;1025;42.686;23.350;2022-10-03T18:52:50;1.87;;;1.77;;
2039;SDS011;1025;42.686;23.350;2022-10-03T18:55:19;2.13;;;2.03;;
2039;SDS011;1025;42.686;23.350;2022-10-03T18:57:51;1.23;;;1.13;;
2039;SDS011;1025;42.686;23.350;2022-10-03T19:00:21;1.50;;;1.43;;
2039;SDS011;1025;42.686;23.350;2022-10-03T19:02:50;1.33;;;1.33;;
2039;SDS011;1025;42.686;23.350;2022-10-03T19:05:20;1.53;;;1.43;;
2039;SDS011;1025;42.686;23.350;2022-10-03T19:07:50;1.57;;;1.50;;